Time;durP1;ratioP1;P1;durP2;ratioP2;P2;SDS_P1;SDS_P2;PMS_P1;PMS_P2;Temp;Humidity;BMP_temperature;BMP_pressure;BME280_temperature;BME280_humidity;BME280_pressure;Samples;Min_cycle;Max_cycle;Signal;HPM_P1;HPM_P2
2021/05/24 00:02:03;;;;;;;0.40;0.30;;;9.10;99.90;;;;;;5015390;28;20407;-74
2021/05/24 00:04:29;;;;;;;0.40;0.20;;;9.10;99.90;;;;;;5014089;28;20918;-73
2021/05/24 00:06:54;;;;;;;0.40;0.30;;;9.10;99.90;;;;;;5012962;28;20424;-73
2021/05/24 00:09:23;;;;;;;0.40;0.20;;;9.10;99.90;;;;;;5024339;28;20381;-75
2021/05/24 00:11:51;;;;;;;0.40;0.30;;;9.10;99.90;;;;;;5030878;28;20424;-73
2021/05/24 00:14:19;;;;;;;0.40;0.20;;;9.70;99.90;;;;;;5001568;28;20392;-74
2021/05/24 00:16:45;;;;;;;0.40;0.20;;;9.00;99.90;;;;;;5017620;28;20799;-73
2021/05/24 00:19:11;;;;;;;0.40;0.30;;;9.50;99.90;;;;;;5017716;28;20484;-76
2021/05/24 00:21:36;;;;;;;0.40;0.40;;;9.40;99.90;;;;;;5012193;28;20412;-74
2021/05/24 00:24:02;;;;;;;0.40;0.20;;;9.00;99.90;;;;;;5017372;28;20462;-73
2021/05/24 00:26:28;;;;;;;0.40;0.20;;;8.90;99.90;;;;;;5020976;28;20813;-73
2021/05/24 00:28:53;;;;;;;0.40;0.30;;;8.80;99.90;;;;;;5006997;28;20811;-72
2021/05/24 00:31:19;;;;;;;0.40;0.20;;;8.70;99.90;;;;;;5024223;28;20923;-73
2021/05/24 00:33:45;;;;;;;0.40;0.30;;;8.70;99.90;;;;;;5018202;28;20417;-72
2021/05/24 00:36:10;;;;;;;0.60;0.50;;;8.80;99.90;;;;;;5011160;28;20390;-73
2021/05/24 00:38:36;;;;;;;0.40;0.30;;;8.70;99.90;;;;;;5001352;28;20387;-73
2021/05/24 00:41:02;;;;;;;0.40;0.20;;;8.70;99.90;;;;;;5023906;28;20735;-73
2021/05/24 00:43:27;;;;;;;0.40;0.20;;;8.70;99.90;;;;;;5025167;28;20375;-73
2021/05/24 00:45:53;;;;;;;0.40;0.30;;;8.60;99.90;;;;;;5016837;28;20416;-73
2021/05/24 00:48:19;;;;;;;0.40;0.30;;;8.70;99.90;;;;;;5028603;28;20480;-73
2021/05/24 00:50:45;;;;;;;0.40;0.30;;;9.40;99.90;;;;;;4991988;28;20419;-72
2021/05/24 00:53:11;;;;;;;0.40;0.40;;;8.50;99.90;;;;;;4982703;28;20498;-74
2021/05/24 00:55:37;;;;;;;0.50;0.40;;;8.50;99.90;;;;;;4987456;28;20391;-73
2021/05/24 00:58:04;;;;;;;0.40;0.30;;;9.10;99.90;;;;;;4976861;28;20384;-73
2021/05/24 01:00:41;;;;;;;0.40;0.22;;;8.60;99.90;;;;;;4992597;28;20394;-72
2021/05/24 01:03:08;;;;;;;0.40;0.30;;;8.60;99.90;;;;;;4993440;28;20394;-72
2021/05/24 01:05:35;;;;;;;0.40;0.20;;;9.20;99.90;;;;;;4991647;28;20375;-74
2021/05/24 01:08:02;;;;;;;0.40;0.20;;;8.50;99.90;;;;;;4993391;28;20411;-74
2021/05/24 01:10:28;;;;;;;0.40;0.20;;;8.50;99.90;;;;;;4992972;28;20433;-75
2021/05/24 01:12:54;;;;;;;0.40;0.20;;;8.80;99.90;;;;;;4993327;28;20386;-72
2021/05/24 01:15:20;;;;;;;0.40;0.20;;;8.70;99.90;;;;;;4992720;28;20405;-72
2021/05/24 01:17:46;;;;;;;0.40;0.30;;;8.40;99.90;;;;;;4993202;28;20559;-72
2021/05/24 01:20:12;;;;;;;0.40;0.20;;;8.50;99.90;;;;;;4992539;28;20461;-73
2021/05/24 01:22:39;;;;;;;0.40;0.30;;;8.30;99.90;;;;;;4993067;28;20425;-73
2021/05/24 01:25:06;;;;;;;0.40;0.20;;;8.40;99.90;;;;;;4992898;28;20748;-72
2021/05/24 01:27:32;;;;;;;0.40;0.20;;;8.40;99.90;;;;;;4992526;28;20418;-73
2021/05/24 01:29:59;;;;;;;0.40;0.20;;;8.40;99.90;;;;;;4991647;28;20485;-73
2021/05/24 01:32:25;;;;;;;0.40;0.20;;;8.40;99.90;;;;;;4992330;28;20489;-73
2021/05/24 01:34:51;;;;;;;0.40;0.20;;;8.40;99.90;;;;;;4992992;28;20382;-73
2021/05/24 01:37:16;;;;;;;0.40;0.33;;;8.40;99.90;;;;;;4992190;28;20433;-73
2021/05/24 01:39:42;;;;;;;0.40;0.20;;;8.60;99.90;;;;;;4992865;28;20468;-73
2021/05/24 01:42:07;;;;;;;0.40;0.30;;;8.30;99.90;;;;;;4991157;28;20387;-72
2021/05/24 01:44:36;;;;;;;0.70;0.70;;;8.80;99.90;;;;;;4992134;28;20382;-73
2021/05/24 01:47:03;;;;;;;0.40;0.20;;;8.20;99.90;;;;;;4992549;28;20417;-73
2021/05/24 01:49:30;;;;;;;0.40;0.20;;;8.90;99.90;;;;;;4995911;28;20868;-74
2021/05/24 01:51:56;;;;;;;0.40;0.20;;;8.80;99.90;;;;;;5032011;28;20372;-74
2021/05/24 01:54:22;;;;;;;0.40;0.20;;;8.30;99.90;;;;;;5031261;28;20383;-74
2021/05/24 01:56:48;;;;;;;0.40;0.30;;;8.80;99.90;;;;;;5031772;28;20371;-73
2021/05/24 01:59:13;;;;;;;0.40;0.30;;;8.30;99.90;;;;;;5030938;28;20379;-76
2021/05/24 02:01:39;;;;;;;0.40;0.20;;;8.90;99.90;;;;;;5010605;28;20466;-73
2021/05/24 02:04:05;;;;;;;0.40;0.20;;;7.60;99.90;;;;;;5011730;28;20855;-73
2021/05/24 02:06:31;;;;;;;0.40;0.20;;;8.20;99.90;;;;;;5010369;28;20385;-73
2021/05/24 02:08:57;;;;;;;0.40;0.20;;;8.30;99.90;;;;;;5010527;28;20751;-74
2021/05/24 02:11:23;;;;;;;1.70;1.40;;;8.90;99.90;;;;;;5010987;28;20792;-73
2021/05/24 02:13:49;;;;;;;0.40;0.20;;;8.30;99.90;;;;;;5011759;28;20459;-74
2021/05/24 02:16:14;;;;;;;0.40;0.30;;;8.00;99.90;;;;;;5011395;28;20701;-76
2021/05/24 02:18:41;;;;;;;0.40;0.20;;;8.30;99.90;;;;;;5011642;28;20428;-74
2021/05/24 02:21:08;;;;;;;0.40;0.20;;;8.90;99.90;;;;;;5010427;28;20456;-74
2021/05/24 02:23:34;;;;;;;0.40;0.20;;;9.50;99.90;;;;;;5010993;28;20392;-73
2021/05/24 02:26:00;;;;;;;0.40;0.20;;;8.30;99.90;;;;;;5011526;28;20376;-73
2021/05/24 02:28:25;;;;;;;0.40;0.20;;;9.00;99.90;;;;;;5010657;28;20423;-73
2021/05/24 02:30:52;;;;;;;1.10;0.80;;;8.20;99.90;;;;;;5011309;28;20396;-72
2021/05/24 02:33:18;;;;;;;0.40;0.20;;;8.20;99.90;;;;;;5010592;28;20408;-72
2021/05/24 02:35:44;;;;;;;0.40;0.30;;;8.10;99.90;;;;;;5011566;28;20380;-73
2021/05/24 02:38:10;;;;;;;0.40;0.30;;;7.60;99.90;;;;;;5011522;28;20389;-73
2021/05/24 02:40:36;;;;;;;0.40;0.20;;;8.40;99.90;;;;;;5010654;28;20385;-73
2021/05/24 02:43:02;;;;;;;0.40;0.20;;;7.70;99.90;;;;;;5011738;28;20415;-73
2021/05/24 02:45:28;;;;;;;0.40;0.20;;;8.10;99.90;;;;;;5010889;28;20387;-72
2021/05/24 02:47:56;;;;;;;0.40;0.20;;;8.10;99.90;;;;;;5010984;28;20424;-73
2021/05/24 02:50:24;;;;;;;0.40;0.30;;;8.30;99.90;;;;;;5009198;28;20867;-73
2021/05/24 02:52:51;;;;;;;0.40;0.20;;;8.20;99.90;;;;;;5011016;28;20381;-73
2021/05/24 02:55:17;;;;;;;0.40;0.20;;;8.30;99.90;;;;;;5011228;28;20411;-77
2021/05/24 02:57:43;;;;;;;0.40;0.30;;;8.40;99.90;;;;;;5011194;28;20381;-73
2021/05/24 03:00:09;;;;;;;0.40;0.20;;;9.30;99.90;;;;;;5011052;28;20853;-73
2021/05/24 03:02:44;;;;;;;0.40;0.20;;;8.50;99.90;;;;;;5029678;28;20849;-73
2021/05/24 03:05:11;;;;;;;0.40;0.20;;;8.50;99.90;;;;;;5013261;28;20876;-73
2021/05/24 03:07:36;;;;;;;0.40;0.40;;;8.60;99.90;;;;;;5030041;28;20935;-73
2021/05/24 03:10:02;;;;;;;0.40;0.30;;;8.80;99.90;;;;;;5013122;28;20387;-73
2021/05/24 03:12:28;;;;;;;0.50;0.50;;;8.70;99.90;;;;;;5029976;28;20383;-73
2021/05/24 03:14:53;;;;;;;0.40;0.20;;;9.30;99.90;;;;;;5030587;28;20399;-73
2021/05/24 03:17:19;;;;;;;0.40;0.20;;;8.60;99.90;;;;;;5030569;28;20379;-73
2021/05/24 03:19:45;;;;;;;0.40;0.20;;;8.70;99.90;;;;;;5034464;28;20378;-73
2021/05/24 03:22:10;;;;;;;0.40;0.30;;;9.20;99.90;;;;;;5034655;28;20724;-73
2021/05/24 03:24:38;;;;;;;0.40;0.20;;;8.40;99.90;;;;;;5034307;28;20421;-73
2021/05/24 03:27:04;;;;;;;0.40;0.30;;;8.90;99.90;;;;;;5034544;28;20415;-73
2021/05/24 03:29:30;;;;;;;0.40;0.20;;;8.70;99.90;;;;;;5033678;28;20406;-74
2021/05/24 03:31:55;;;;;;;0.40;0.30;;;8.70;99.90;;;;;;5034959;28;20391;-73
2021/05/24 03:34:21;;;;;;;0.40;0.20;;;9.20;99.90;;;;;;5033631;28;20775;-74
2021/05/24 03:36:46;;;;;;;0.40;0.20;;;8.70;99.90;;;;;;5034477;28;20375;-74
2021/05/24 03:39:12;;;;;;;0.40;0.30;;;8.50;99.90;;;;;;5034359;28;20390;-74
2021/05/24 03:41:38;;;;;;;0.40;0.30;;;9.20;99.90;;;;;;5033974;28;20946;-73
2021/05/24 03:44:04;;;;;;;0.40;0.20;;;8.30;99.90;;;;;;5016491;28;20936;-74
2021/05/24 03:46:30;;;;;;;0.40;0.20;;;8.30;99.90;;;;;;5033445;28;20503;-74
2021/05/24 03:48:55;;;;;;;0.40;0.20;;;8.50;99.90;;;;;;5033774;28;20533;-74
2021/05/24 03:51:21;;;;;;;0.40;0.20;;;8.20;99.90;;;;;;5033646;28;20407;-75
2021/05/24 03:53:47;;;;;;;0.40;0.30;;;8.30;99.90;;;;;;5033881;28;20378;-74
2021/05/24 03:56:13;;;;;;;0.50;0.50;;;8.20;99.90;;;;;;5034099;28;20367;-74
2021/05/24 03:58:39;;;;;;;0.40;0.30;;;8.30;99.90;;;;;;5033385;28;20406;-74
2021/05/24 04:01:05;;;;;;;0.40;0.20;;;8.60;99.90;;;;;;5034164;28;20450;-73
2021/05/24 04:03:31;;;;;;;0.40;0.30;;;8.30;99.90;;;;;;5033647;28;20479;-73
2021/05/24 04:06:04;;;;;;;0.40;0.20;;;8.40;99.90;;;;;;5034281;28;20383;-72
2021/05/24 04:08:40;;;;;;;0.40;0.20;;;8.20;99.90;;;;;;5033107;28;20808;-73
2021/05/24 04:11:06;;;;;;;0.40;0.20;;;8.30;99.90;;;;;;5034277;28;20433;-73
2021/05/24 04:13:32;;;;;;;0.40;0.20;;;8.20;99.90;;;;;;5015679;28;20457;-73
2021/05/24 04:15:58;;;;;;;0.40;0.20;;;8.00;99.90;;;;;;5033912;28;20423;-73
2021/05/24 04:18:27;;;;;;;0.40;0.20;;;8.20;99.90;;;;;;5015601;28;20529;-74
2021/05/24 04:20:53;;;;;;;0.40;0.20;;;8.30;99.90;;;;;;5015999;28;20390;-74
2021/05/24 04:23:19;;;;;;;0.40;0.20;;;8.30;99.90;;;;;;5033845;28;20414;-73
2021/05/24 04:25:47;;;;;;;0.40;0.20;;;8.20;99.90;;;;;;5015412;28;20406;-73
2021/05/24 04:28:13;;;;;;;0.40;0.20;;;8.60;99.90;;;;;;5015899;28;20465;-73
2021/05/24 04:30:40;;;;;;;0.40;0.20;;;8.50;99.90;;;;;;5014197;28;20399;-73
2021/05/24 04:33:05;;;;;;;0.50;0.50;;;9.00;99.90;;;;;;5033645;28;20380;-74
2021/05/24 04:35:31;;;;;;;0.40;0.20;;;8.50;99.90;;;;;;5033124;28;20417;-73
2021/05/24 04:37:56;;;;;;;0.40;0.20;;;10.00;99.90;;;;;;5033595;28;20850;-73
2021/05/24 04:40:22;;;;;;;0.40;0.20;;;8.80;99.90;;;;;;5033471;28;20391;-73
2021/05/24 04:42:50;;;;;;;0.40;0.20;;;8.30;99.90;;;;;;5032762;28;20438;-73
2021/05/24 04:45:16;;;;;;;0.40;0.20;;;8.70;99.90;;;;;;5033279;28;20833;-74
2021/05/24 04:47:42;;;;;;;0.40;0.20;;;8.40;99.90;;;;;;5032743;28;20938;-73
2021/05/24 04:50:08;;;;;;;0.40;0.20;;;8.30;99.90;;;;;;5033198;28;20450;-73
2021/05/24 04:52:35;;;;;;;0.40;0.20;;;8.40;99.90;;;;;;5032686;28;20395;-73
2021/05/24 04:55:01;;;;;;;0.40;0.20;;;8.50;99.90;;;;;;5032943;28;20441;-73
2021/05/24 04:57:27;;;;;;;0.40;0.20;;;8.50;99.90;;;;;;5032554;28;20461;-74
2021/05/24 04:59:52;;;;;;;0.40;0.20;;;8.60;99.90;;;;;;5033043;28;20418;-73
2021/05/24 05:02:18;;;;;;;0.40;0.20;;;8.50;99.90;;;;;;5016165;28;20389;-73
2021/05/24 05:04:45;;;;;;;0.40;0.20;;;8.50;99.90;;;;;;5012594;28;20829;-73
2021/05/24 05:07:11;;;;;;;0.40;0.20;;;8.80;99.90;;;;;;4995776;28;20762;-73
2021/05/24 05:09:37;;;;;;;0.40;0.20;;;9.10;99.90;;;;;;4995023;28;20393;-73
2021/05/24 05:12:03;;;;;;;0.40;0.20;;;8.60;99.90;;;;;;5012806;28;20381;-73
2021/05/24 05:14:28;;;;;;;0.40;0.20;;;8.60;99.90;;;;;;5012420;28;20479;-73
2021/05/24 05:16:54;;;;;;;0.40;0.20;;;8.70;99.90;;;;;;5013092;28;20798;-73
2021/05/24 05:19:20;;;;;;;0.40;0.20;;;8.60;99.90;;;;;;4995519;28;20388;-74
2021/05/24 05:21:47;;;;;;;0.40;0.20;;;9.00;99.90;;;;;;5012075;28;20708;-74
2021/05/24 05:24:13;;;;;;;0.40;0.20;;;8.50;99.90;;;;;;5012599;28;20946;-74
2021/05/24 05:26:38;;;;;;;0.40;0.30;;;9.20;99.90;;;;;;5012014;28;20464;-73
2021/05/24 05:29:04;;;;;;;0.40;0.20;;;9.20;99.90;;;;;;5012502;28;20412;-74
2021/05/24 05:31:30;;;;;;;0.40;0.20;;;8.90;99.90;;;;;;4994177;28;20443;-73
2021/05/24 05:33:56;;;;;;;0.40;0.20;;;9.10;99.90;;;;;;4995471;28;20397;-73
2021/05/24 05:36:24;;;;;;;0.40;0.20;;;9.10;99.90;;;;;;5012415;28;20851;-73
2021/05/24 05:38:50;;;;;;;0.40;0.20;;;9.20;99.90;;;;;;5012109;28;20376;-74
2021/05/24 05:41:15;;;;;;;0.40;0.20;;;9.20;99.90;;;;;;4994532;28;20898;-74
2021/05/24 05:43:41;;;;;;;0.40;0.20;;;9.40;99.90;;;;;;4994464;28;20480;-74
2021/05/24 05:46:07;;;;;;;0.40;0.20;;;9.40;99.90;;;;;;5012531;28;20385;-75
2021/05/24 05:48:33;;;;;;;0.40;0.20;;;9.50;99.90;;;;;;5011865;28;20425;-74
2021/05/24 05:50:58;;;;;;;0.40;0.40;;;9.60;99.90;;;;;;5012653;28;20404;-75
2021/05/24 05:53:24;;;;;;;0.40;0.20;;;9.60;99.90;;;;;;4994850;28;20388;-74
2021/05/24 05:55:52;;;;;;;0.40;0.20;;;9.70;99.90;;;;;;5011726;28;20385;-75
2021/05/24 05:58:18;;;;;;;0.40;0.20;;;9.90;99.90;;;;;;5012374;28;20384;-74
2021/05/24 06:00:43;;;;;;;0.40;0.20;;;9.40;99.90;;;;;;5015851;28;20414;-74
2021/05/24 06:03:11;;;;;;;0.40;0.20;;;9.80;99.90;;;;;;5031862;28;20378;-75
2021/05/24 06:05:37;;;;;;;0.40;0.20;;;9.90;99.90;;;;;;5031309;28;20492;-75
2021/05/24 06:08:02;;;;;;;0.40;0.20;;;9.90;99.90;;;;;;5031992;28;20977;-74
2021/05/24 06:10:30;;;;;;;0.40;0.20;;;10.10;99.90;;;;;;5031423;28;20873;-75
2021/05/24 06:12:55;;;;;;;0.40;0.28;;;10.10;99.90;;;;;;5031946;28;20393;-75
2021/05/24 06:15:21;;;;;;;0.40;0.20;;;10.20;99.90;;;;;;5031762;28;20378;-73
2021/05/24 06:17:47;;;;;;;0.40;0.20;;;10.30;99.90;;;;;;5031243;28;20390;-72
2021/05/24 06:20:13;;;;;;;0.40;0.20;;;10.50;99.90;;;;;;5031583;28;20433;-74
2021/05/24 06:22:39;;;;;;;0.40;0.27;;;10.40;99.90;;;;;;5031181;28;20461;-74
2021/05/24 06:25:07;;;;;;;0.40;0.30;;;10.60;99.90;;;;;;5031642;28;20379;-74
2021/05/24 06:27:33;;;;;;;0.40;0.30;;;10.50;99.90;;;;;;5030824;28;20445;-74
2021/05/24 06:29:58;;;;;;;0.40;0.20;;;10.50;99.90;;;;;;5031460;28;20410;-75
2021/05/24 06:32:24;;;;;;;0.40;0.20;;;10.60;99.90;;;;;;5031501;28;20421;-74
2021/05/24 06:34:50;;;;;;;0.40;0.28;;;10.70;99.90;;;;;;5031267;28;20383;-75
2021/05/24 06:37:16;;;;;;;0.40;0.30;;;11.70;99.90;;;;;;5031411;28;20375;-73
2021/05/24 06:39:41;;;;;;;0.40;0.20;;;10.70;99.90;;;;;;5030818;28;20379;-74
2021/05/24 06:42:07;;;;;;;0.40;0.40;;;10.70;99.90;;;;;;5031354;28;20450;-74
2021/05/24 06:44:33;;;;;;;1.30;0.70;;;10.80;99.90;;;;;;5013124;28;20445;-73
2021/05/24 06:46:59;;;;;;;0.40;0.20;;;10.80;99.90;;;;;;5031460;28;20769;-72
2021/05/24 06:49:24;;;;;;;0.40;0.30;;;10.90;99.90;;;;;;5013560;28;20415;-73
2021/05/24 06:51:50;;;;;;;0.40;0.40;;;10.90;99.90;;;;;;5030762;28;20703;-73
2021/05/24 06:54:17;;;;;;;0.40;0.30;;;11.00;99.90;;;;;;5030731;28;20749;-74
2021/05/24 06:56:42;;;;;;;0.40;0.30;;;11.10;99.90;;;;;;5030701;28;20379;-74
2021/05/24 06:59:08;;;;;;;0.40;0.20;;;11.20;99.90;;;;;;5031095;28;20379;-74
2021/05/24 07:01:36;;;;;;;0.40;0.30;;;11.60;99.90;;;;;;5019380;28;20403;-73
2021/05/24 07:04:01;;;;;;;0.40;0.30;;;11.50;99.90;;;;;;5011238;28;20731;-73
2021/05/24 07:06:27;;;;;;;0.40;0.20;;;11.50;99.90;;;;;;5011096;28;20438;-74
2021/05/24 07:08:53;;;;;;;0.40;0.20;;;11.60;99.90;;;;;;5010859;28;20506;-74
2021/05/24 07:11:18;;;;;;;0.40;0.20;;;11.70;99.90;;;;;;5011333;28;20380;-74
2021/05/24 07:13:44;;;;;;;0.40;0.20;;;11.80;99.90;;;;;;5010793;28;20384;-74
2021/05/24 07:16:10;;;;;;;0.40;0.20;;;11.90;99.90;;;;;;5011319;28;20377;-73
2021/05/24 07:18:37;;;;;;;0.40;0.20;;;12.00;99.90;;;;;;5010781;28;20847;-74
2021/05/24 07:21:03;;;;;;;0.40;0.20;;;12.10;99.90;;;;;;5011492;28;20388;-74
2021/05/24 07:23:31;;;;;;;2.30;0.80;;;12.20;99.90;;;;;;5011205;28;20408;-74
2021/05/24 07:25:57;;;;;;;0.40;0.30;;;12.30;99.90;;;;;;4992922;28;20958;-74
2021/05/24 07:28:22;;;;;;;0.40;0.30;;;12.50;99.90;;;;;;5010936;28;20491;-74
2021/05/24 07:30:48;;;;;;;0.40;0.30;;;12.70;99.90;;;;;;4992828;28;20459;-74
2021/05/24 07:33:13;;;;;;;0.40;0.20;;;12.70;99.90;;;;;;5011562;28;20471;-74
2021/05/24 07:35:39;;;;;;;0.40;0.20;;;12.70;99.90;;;;;;5010636;28;20469;-75
2021/05/24 07:38:05;;;;;;;0.40;0.20;;;13.00;99.90;;;;;;4993510;28;20395;-74
2021/05/24 07:40:30;;;;;;;0.40;0.30;;;13.20;99.90;;;;;;4993556;28;20744;-74
2021/05/24 07:42:56;;;;;;;0.40;0.40;;;13.40;99.90;;;;;;5010155;28;20377;-74
2021/05/24 07:45:22;;;;;;;0.40;0.20;;;13.40;99.90;;;;;;4993549;28;20484;-75
2021/05/24 07:47:47;;;;;;;0.40;0.30;;;13.40;99.90;;;;;;4992670;28;20444;-75
2021/05/24 07:50:13;;;;;;;0.40;0.20;;;13.50;99.90;;;;;;5010844;28;20405;-75
2021/05/24 07:52:39;;;;;;;0.40;0.30;;;13.60;99.90;;;;;;4992696;28;20776;-74
2021/05/24 07:55:05;;;;;;;0.40;0.20;;;13.70;99.40;;;;;;4993475;28;20385;-74
2021/05/24 07:57:32;;;;;;;0.40;0.20;;;13.90;98.00;;;;;;5011213;28;20416;-74
2021/05/24 07:59:58;;;;;;;0.40;0.20;;;13.70;98.10;;;;;;5010275;28;20385;-76
2021/05/24 08:05:24;;;;;;;0.40;0.30;;;14.30;98.30;;;;;;5011745;28;20724;-74
2021/05/24 08:07:49;;;;;;;0.40;0.20;;;13.80;96.70;;;;;;5013737;28;20408;-74
2021/05/24 08:10:16;;;;;;;0.40;0.30;;;13.80;97.60;;;;;;5014447;28;20479;-74
2021/05/24 08:12:43;;;;;;;0.40;0.30;;;14.00;97.10;;;;;;5013309;28;20870;-73
2021/05/24 08:15:15;;;;;;;0.40;0.20;;;14.10;95.80;;;;;;5014010;28;20425;-73
2021/05/24 08:17:41;;;;;;;0.40;0.20;;;14.00;96.60;;;;;;5013646;28;20420;-74
2021/05/24 08:20:09;;;;;;;0.40;0.20;;;14.30;96.20;;;;;;5014266;28;20381;-75
2021/05/24 08:22:35;;;;;;;0.40;0.28;;;14.30;95.90;;;;;;5012733;28;20435;-75
2021/05/24 08:25:01;;;;;;;0.40;0.40;;;14.30;95.90;;;;;;5013929;28;20754;-74
2021/05/24 08:27:27;;;;;;;0.40;0.20;;;14.10;95.90;;;;;;5013953;28;20462;-74
2021/05/24 08:29:53;;;;;;;0.40;0.30;;;14.30;95.90;;;;;;5012990;28;20921;-76
2021/05/24 08:32:19;;;;;;;0.40;0.20;;;14.30;96.00;;;;;;5013941;28;20420;-76
2021/05/24 08:34:44;;;;;;;0.40;0.30;;;14.60;95.50;;;;;;5021246;28;20381;-74
2021/05/24 08:37:10;;;;;;;0.40;0.20;;;14.60;96.10;;;;;;5022464;28;20790;-74
2021/05/24 08:39:37;;;;;;;0.40;0.20;;;14.60;95.90;;;;;;4998380;28;20393;-73
2021/05/24 08:42:03;;;;;;;0.40;0.30;;;14.70;96.20;;;;;;5023235;28;20464;-74
2021/05/24 08:44:29;;;;;;;0.40;0.20;;;14.80;96.20;;;;;;5022704;28;20451;-75
2021/05/24 08:46:55;;;;;;;1.70;0.70;;;14.70;96.10;;;;;;5023175;28;20418;-74
2021/05/24 08:49:21;;;;;;;0.40;0.30;;;14.90;95.40;;;;;;5022090;28;20405;-74
2021/05/24 08:51:47;;;;;;;0.40;0.30;;;15.10;95.70;;;;;;5022423;28;20398;-75
2021/05/24 08:54:13;;;;;;;0.40;0.20;;;15.10;95.80;;;;;;5023552;28;20381;-73
2021/05/24 08:56:39;;;;;;;0.40;0.20;;;14.80;96.80;;;;;;5032274;28;20390;-73
2021/05/24 08:59:05;;;;;;;0.40;0.30;;;15.10;95.50;;;;;;5033354;28;20377;-73
2021/05/24 09:01:30;;;;;;;0.40;0.30;;;15.20;95.70;;;;;;5023110;28;20731;-74
2021/05/24 09:04:04;;;;;;;0.40;0.25;;;15.30;95.60;;;;;;5012657;28;20731;-76
2021/05/24 09:06:53;;;;;;;0.40;0.30;;;15.90;95.70;;;;;;5013028;28;20859;-74
2021/05/24 09:09:19;;;;;;;0.40;0.30;;;15.30;95.10;;;;;;5013152;28;20394;-74
2021/05/24 09:11:46;;;;;;;0.40;0.30;;;15.40;95.20;;;;;;5012467;28;20380;-77
2021/05/24 09:14:20;;;;;;;0.40;0.30;;;15.50;95.30;;;;;;4995387;28;20393;-73
2021/05/24 09:17:04;;;;;;;0.40;0.30;;;15.50;94.80;;;;;;5013076;28;20395;-74
2021/05/24 09:19:35;;;;;;;0.40;0.30;;;15.60;94.60;;;;;;5017055;28;20389;-74
2021/05/24 09:22:07;;;;;;;0.50;0.50;;;15.60;94.20;;;;;;5013799;28;20381;-74
2021/05/24 09:24:45;;;;;;;0.70;0.60;;;15.50;94.10;;;;;;5022557;28;20387;-75
2021/05/24 09:27:40;;;;;;;0.50;0.40;;;15.60;94.60;;;;;;5029285;28;20466;-73
2021/05/24 09:30:07;;;;;;;0.40;0.20;;;15.60;94.40;;;;;;4994899;28;20448;-73
2021/05/24 09:32:33;;;;;;;0.40;0.20;;;15.70;94.50;;;;;;5012496;28;20389;-73
2021/05/24 09:35:03;;;;;;;0.40;0.30;;;15.90;93.90;;;;;;5026298;28;20465;-73
2021/05/24 09:37:41;;;;;;;0.40;0.20;;;15.80;94.50;;;;;;5015657;28;20384;-73
2021/05/24 09:40:21;;;;;;;0.40;0.30;;;15.90;94.00;;;;;;5024864;28;20381;-73
2021/05/24 09:42:47;;;;;;;0.40;0.30;;;15.90;94.10;;;;;;5024256;28;20387;-74
2021/05/24 09:45:21;;;;;;;0.40;0.20;;;16.10;93.20;;;;;;5015885;28;20388;-73
2021/05/24 09:47:48;;;;;;;0.80;0.50;;;16.20;92.00;;;;;;5015954;28;20498;-73
2021/05/24 09:50:18;;;;;;;0.40;0.20;;;16.20;92.20;;;;;;5026562;28;20415;-74
2021/05/24 09:52:46;;;;;;;0.40;0.30;;;16.20;92.30;;;;;;4998135;28;20788;-73
2021/05/24 09:55:21;;;;;;;0.40;0.20;;;16.10;90.60;;;;;;5018887;28;20390;-73
2021/05/24 09:58:11;;;;;;;0.40;0.20;;;15.90;91.10;;;;;;5021983;28;20931;-76
2021/05/24 10:00:41;;;;;;;0.40;0.30;;;16.10;88.50;;;;;;5020114;28;20904;-75
2021/05/24 10:03:09;;;;;;;0.40;0.30;;;16.10;89.80;;;;;;5020927;28;20497;-73
2021/05/24 10:05:43;;;;;;;0.47;0.38;;;16.10;90.20;;;;;;5022555;28;20392;-73
2021/05/24 10:08:09;;;;;;;0.40;0.30;;;15.90;90.50;;;;;;5019853;28;20412;-75
2021/05/24 10:10:36;;;;;;;0.40;0.20;;;16.00;90.50;;;;;;5021718;28;20375;-74
2021/05/24 10:13:02;;;;;;;0.40;0.30;;;16.20;91.20;;;;;;5020699;28;20605;-76
2021/05/24 10:15:28;;;;;;;0.40;0.30;;;16.10;90.90;;;;;;5020169;28;20473;-73
2021/05/24 10:18:01;;;;;;;0.40;0.20;;;16.20;91.10;;;;;;5020988;28;20729;-75
2021/05/24 10:20:31;;;;;;;0.40;0.20;;;16.20;91.70;;;;;;4998298;28;20407;-75
2021/05/24 10:22:58;;;;;;;0.40;0.30;;;16.40;89.00;;;;;;5020799;28;20386;-75
2021/05/24 10:25:24;;;;;;;0.40;0.20;;;16.60;90.00;;;;;;4999090;28;20858;-76
2021/05/24 10:27:51;;;;;;;0.40;0.20;;;16.90;89.90;;;;;;5019748;28;20420;-77
2021/05/24 10:30:18;;;;;;;0.40;0.20;;;16.30;88.60;;;;;;4999626;28;20432;-75
2021/05/24 10:33:05;;;;;;;0.50;0.30;;;16.50;91.50;;;;;;5005966;28;20399;-76
2021/05/24 10:35:36;;;;;;;0.40;0.30;;;17.00;91.30;;;;;;5003022;28;20404;-77
2021/05/24 10:38:32;;;;;;;0.40;0.30;;;17.50;90.30;;;;;;5003795;28;20638;-77
2021/05/24 10:41:16;;;;;;;0.40;0.30;;;17.30;88.30;;;;;;5018493;28;20491;-73
2021/05/24 10:43:48;;;;;;;0.40;0.30;;;18.10;89.60;;;;;;5018549;28;20383;-74
2021/05/24 10:46:26;;;;;;;0.40;0.20;;;18.20;83.60;;;;;;5016110;28;20428;-74
2021/05/24 10:48:56;;;;;;;0.40;0.20;;;17.90;81.80;;;;;;5019778;28;20407;-75
2021/05/24 10:51:42;;;;;;;0.40;0.20;;;18.10;82.70;;;;;;4995222;28;20413;-76
2021/05/24 10:54:08;;;;;;;0.40;0.20;;;18.50;76.20;;;;;;4980161;28;20396;-76
2021/05/24 10:56:34;;;;;;;0.40;0.20;;;18.50;76.30;;;;;;4980908;28;20391;-75
2021/05/24 10:58:59;;;;;;;0.40;0.20;;;18.20;77.10;;;;;;4981311;28;20390;-76
2021/05/24 11:01:25;;;;;;;0.40;0.20;;;18.70;78.60;;;;;;4978377;28;20399;-74
2021/05/24 11:04:11;;;;;;;0.50;0.40;;;19.00;76.00;;;;;;4973001;28;20731;-74
2021/05/24 11:06:36;;;;;;;0.40;0.30;;;18.70;78.20;;;;;;4991476;28;20916;-75
2021/05/24 11:09:05;;;;;;;0.40;0.20;;;19.00;76.80;;;;;;4989449;28;20582;-75
2021/05/24 11:11:34;;;;;;;0.40;0.20;;;18.60;75.50;;;;;;4991115;28;21000;-74
2021/05/24 11:14:06;;;;;;;0.40;0.20;;;18.70;74.00;;;;;;4991167;28;20386;-75
2021/05/24 11:16:33;;;;;;;0.40;0.20;;;19.20;74.10;;;;;;4991869;28;20378;-74
2021/05/24 11:19:16;;;;;;;0.40;0.30;;;19.20;71.70;;;;;;4990979;28;20387;-74
2021/05/24 11:21:49;;;;;;;0.40;0.30;;;19.30;72.40;;;;;;4991485;28;20861;-72
2021/05/24 11:27:15;;;;;;;0.40;0.30;;;19.30;68.90;;;;;;4990730;28;20397;-73
2021/05/24 11:29:44;;;;;;;0.40;0.30;;;19.20;66.00;;;;;;4991429;28;20442;-74
2021/05/24 11:32:28;;;;;;;0.40;0.30;;;19.20;70.50;;;;;;4991086;28;20383;-73
2021/05/24 11:34:54;;;;;;;0.40;0.30;;;19.00;70.40;;;;;;4990804;28;20400;-73
2021/05/24 11:37:21;;;;;;;0.40;0.20;;;19.30;67.70;;;;;;4990285;28;20402;-73
2021/05/24 11:39:54;;;;;;;0.40;0.20;;;19.50;66.60;;;;;;4991615;28;20722;-73
2021/05/24 11:42:26;;;;;;;0.40;0.20;;;19.90;67.00;;;;;;4993991;28;20421;-73
2021/05/24 11:44:53;;;;;;;0.40;0.30;;;19.90;65.80;;;;;;4994618;28;20755;-74
2021/05/24 11:47:24;;;;;;;0.40;0.30;;;20.00;61.70;;;;;;4995149;28;20410;-74
2021/05/24 11:49:56;;;;;;;0.40;0.30;;;20.30;58.40;;;;;;5004314;28;20891;-74
2021/05/24 11:52:24;;;;;;;0.40;0.30;;;20.50;55.80;;;;;;5016814;28;20940;-73
2021/05/24 11:54:51;;;;;;;0.40;0.20;;;20.50;53.50;;;;;;5033405;28;20850;-74
2021/05/24 11:57:22;;;;;;;0.40;0.20;;;20.40;53.70;;;;;;5034351;28;20379;-74
2021/05/24 11:59:49;;;;;;;0.40;0.20;;;20.20;52.30;;;;;;5015711;28;20387;-73
2021/05/24 12:02:15;;;;;;;0.40;0.30;;;19.80;50.40;;;;;;5018163;28;20827;-74
2021/05/24 12:04:44;;;;;;;0.50;0.40;;;19.70;52.70;;;;;;5014413;28;20408;-73
2021/05/24 12:07:16;;;;;;;0.40;0.30;;;19.60;51.90;;;;;;5013824;28;20385;-73
2021/05/24 12:09:54;;;;;;;0.40;0.20;;;19.40;50.80;;;;;;5014403;28;20762;-73
2021/05/24 12:12:22;;;;;;;0.40;0.20;;;19.30;52.90;;;;;;5014352;28;20380;-73
2021/05/24 12:14:51;;;;;;;0.52;0.40;;;19.40;52.60;;;;;;5013652;28;20377;-75
2021/05/24 12:17:22;;;;;;;0.40;0.20;;;19.10;53.60;;;;;;5014258;28;20377;-73
2021/05/24 12:19:52;;;;;;;0.40;0.20;;;19.20;55.40;;;;;;5013192;28;20878;-77
2021/05/24 12:22:21;;;;;;;0.40;0.20;;;19.30;53.60;;;;;;5022878;28;20395;-74
2021/05/24 12:24:47;;;;;;;0.40;0.20;;;19.50;55.60;;;;;;5033424;28;20428;-74
2021/05/24 12:27:15;;;;;;;0.40;0.30;;;19.40;55.30;;;;;;5034092;28;20386;-75
2021/05/24 12:29:53;;;;;;;0.40;0.20;;;19.30;54.00;;;;;;5033289;28;20391;-74
2021/05/24 12:32:33;;;;;;;0.40;0.20;;;19.20;55.20;;;;;;5033670;28;20387;-74
2021/05/24 12:35:03;;;;;;;0.40;0.30;;;19.30;56.40;;;;;;5003954;28;20737;-74
2021/05/24 12:37:29;;;;;;;0.40;0.20;;;19.30;51.80;;;;;;5021876;28;20413;-74
2021/05/24 12:39:56;;;;;;;0.40;0.20;;;19.30;52.70;;;;;;5023670;28;20414;-74
2021/05/24 12:42:21;;;;;;;0.40;0.30;;;19.30;51.70;;;;;;5018361;28;20715;-73
2021/05/24 12:44:47;;;;;;;0.40;0.20;;;19.50;54.40;;;;;;5024645;28;20388;-72
2021/05/24 12:47:21;;;;;;;0.40;0.20;;;19.70;51.60;;;;;;5014948;28;20391;-73
2021/05/24 12:49:48;;;;;;;0.40;0.20;;;19.60;51.60;;;;;;5033248;28;20946;-73
2021/05/24 12:52:17;;;;;;;0.40;0.30;;;19.80;52.10;;;;;;5021722;28;20395;-76
2021/05/24 12:54:52;;;;;;;0.40;0.20;;;19.70;52.00;;;;;;5013583;28;20381;-74
2021/05/24 12:57:29;;;;;;;0.40;0.30;;;19.90;53.50;;;;;;5022973;28;20387;-74
2021/05/24 12:59:56;;;;;;;0.40;0.30;;;20.10;50.80;;;;;;5026508;28;20403;-73
2021/05/24 13:02:29;;;;;;;0.40;0.20;;;20.20;51.40;;;;;;5024433;28;20391;-73